Time;durP1;ratioP1;P1;durP2;ratioP2;P2;SDS_P1;SDS_P2;PMS_P1;PMS_P2;Temp;Humidity;BMP_temperature;BMP_pressure;BME280_temperature;BME280_humidity;BME280_pressure;Samples;Min_cycle;Max_cycle;Signal;HPM_P1;HPM_P2
2023/10/26 00:01:31;;;;;;;0.85;0.65;;;;;;;;;;5045587;28;20529;-85
2023/10/26 00:04:02;;;;;;;0.63;0.50;;;;;;;;;;5068196;28;20403;-85
2023/10/26 00:06:32;;;;;;;1.38;0.70;;;;;;;;;;5043644;28;20048;-85
2023/10/26 00:09:02;;;;;;;0.75;0.55;;;;;;;;;;5050347;28;20045;-85
2023/10/26 00:11:31;;;;;;;0.60;0.50;;;;;;;;;;5068528;28;20690;-85
2023/10/26 00:13:58;;;;;;;0.52;0.50;;;;;;;;;;5049302;28;20414;-85
2023/10/26 00:16:26;;;;;;;0.60;0.35;;;;;;;;;;5052820;28;20052;-85
2023/10/26 00:18:56;;;;;;;0.55;0.55;;;;;;;;;;5068691;28;20044;-85
2023/10/26 00:21:25;;;;;;;0.90;0.80;;;;;;;;;;5048056;28;20398;-85
2023/10/26 00:23:52;;;;;;;1.08;0.77;;;;;;;;;;5064457;28;20064;-85
2023/10/26 00:26:21;;;;;;;1.38;0.88;;;;;;;;;;5052434;28;20048;-85
2023/10/26 00:28:52;;;;;;;0.60;0.50;;;;;;;;;;5066435;28;20043;-85
2023/10/26 00:31:22;;;;;;;2.17;0.70;;;;;;;;;;5048387;28;20049;-85
2023/10/26 00:33:49;;;;;;;9.38;2.15;;;;;;;;;;5067570;28;20052;-85
2023/10/26 00:36:19;;;;;;;0.98;0.73;;;;;;;;;;5040146;28;20056;-85
2023/10/26 00:38:53;;;;;;;0.50;0.50;;;;;;;;;;5048849;28;20055;-85
2023/10/26 00:41:20;;;;;;;3.67;1.00;;;;;;;;;;5068802;28;20055;-85
2023/10/26 00:43:47;;;;;;;0.82;0.40;;;;;;;;;;5052541;28;20045;-85
2023/10/26 00:46:15;;;;;;;1.02;0.82;;;;;;;;;;5068828;28;20051;-84
2023/10/26 00:48:45;;;;;;;0.77;0.65;;;;;;;;;;5051983;28;20051;-85
2023/10/26 00:51:15;;;;;;;0.85;0.70;;;;;;;;;;5071176;28;20410;-84
2023/10/26 00:53:43;;;;;;;1.80;0.70;;;;;;;;;;5055459;28;20044;-84
2023/10/26 00:56:13;;;;;;;0.60;0.60;;;;;;;;;;5053478;28;20144;-84
2023/10/26 00:58:41;;;;;;;2.92;0.98;;;;;;;;;;5055017;28;20056;-84
2023/10/26 01:01:08;;;;;;;0.98;0.73;;;;;;;;;;5054734;28;20053;-85
2023/10/26 01:03:37;;;;;;;0.63;0.43;;;;;;;;;;5052314;28;20562;-84
2023/10/26 01:06:05;;;;;;;2.15;0.65;;;;;;;;;;5069339;28;20074;-85
2023/10/26 01:08:34;;;;;;;0.77;0.50;;;;;;;;;;5071109;28;20048;-85
2023/10/26 01:11:04;;;;;;;0.77;0.70;;;;;;;;;;5065356;28;20052;-85
2023/10/26 01:13:35;;;;;;;0.82;0.80;;;;;;;;;;5070281;22;20057;-80
2023/10/26 01:16:04;;;;;;;0.82;0.60;;;;;;;;;;5044393;28;20053;-79
2023/10/26 01:18:31;;;;;;;1.45;0.93;;;;;;;;;;5060156;28;20048;-81
2023/10/26 01:21:00;;;;;;;0.93;0.50;;;;;;;;;;5081594;28;20045;-80
2023/10/26 01:23:29;;;;;;;0.98;0.68;;;;;;;;;;5074250;28;20035;-80
2023/10/26 01:25:58;;;;;;;2.30;0.57;;;;;;;;;;5045479;28;20037;-80
2023/10/26 01:28:25;;;;;;;0.70;0.47;;;;;;;;;;5071408;28;20029;-80
2023/10/26 01:30:53;;;;;;;1.08;0.52;;;;;;;;;;5060691;28;20041;-80
2023/10/26 01:33:21;;;;;;;1.20;0.65;;;;;;;;;;5047601;28;20205;-79
2023/10/26 01:35:48;;;;;;;1.83;0.60;;;;;;;;;;5035712;28;20042;-79
2023/10/26 01:38:17;;;;;;;1.40;0.68;;;;;;;;;;5030245;28;20505;-79
2023/10/26 01:40:46;;;;;;;1.10;0.70;;;;;;;;;;5049538;28;20044;-79
2023/10/26 01:43:13;;;;;;;1.55;0.85;;;;;;;;;;5053104;28;20049;-80
2023/10/26 01:45:41;;;;;;;0.77;0.60;;;;;;;;;;5052961;28;20607;-80
2023/10/26 01:48:11;;;;;;;0.60;0.50;;;;;;;;;;5044795;28;20053;-80
2023/10/26 01:50:38;;;;;;;0.52;0.52;;;;;;;;;;5024674;28;20041;-80
2023/10/26 01:53:05;;;;;;;0.52;0.52;;;;;;;;;;5044864;28;20049;-82
2023/10/26 01:55:33;;;;;;;0.60;0.55;;;;;;;;;;5037155;28;20060;-81
2023/10/26 01:58:01;;;;;;;1.35;0.60;;;;;;;;;;5048517;28;20046;-80
2023/10/26 02:00:34;;;;;;;0.60;0.45;;;;;;;;;;5042084;28;20049;-81
2023/10/26 02:03:01;;;;;;;3.03;0.60;;;;;;;;;;5037597;28;20049;-81
2023/10/26 02:05:29;;;;;;;0.88;0.77;;;;;;;;;;5034927;28;20045;-80
2023/10/26 02:07:56;;;;;;;0.85;0.70;;;;;;;;;;5055737;28;20048;-80
2023/10/26 02:10:23;;;;;;;0.75;0.50;;;;;;;;;;5030809;28;20057;-80
2023/10/26 02:12:51;;;;;;;0.90;0.90;;;;;;;;;;5038187;28;20053;-80
2023/10/26 02:15:20;;;;;;;2.47;0.63;;;;;;;;;;5020483;28;20495;-80
2023/10/26 02:17:47;;;;;;;0.82;0.52;;;;;;;;;;5021759;28;20049;-80
2023/10/26 02:20:14;;;;;;;1.83;0.60;;;;;;;;;;5023670;28;20483;-80
2023/10/26 02:22:42;;;;;;;0.68;0.60;;;;;;;;;;5037553;28;20049;-81
2023/10/26 02:25:10;;;;;;;4.57;1.27;;;;;;;;;;5038973;28;20048;-81
2023/10/26 02:27:38;;;;;;;1.38;0.85;;;;;;;;;;5035547;28;20060;-81
2023/10/26 02:30:07;;;;;;;0.88;0.65;;;;;;;;;;5036689;28;20060;-81
2023/10/26 02:32:36;;;;;;;0.95;0.95;;;;;;;;;;5020314;28;20463;-81
2023/10/26 02:35:03;;;;;;;0.70;0.68;;;;;;;;;;5024676;28;20610;-80
2023/10/26 02:37:32;;;;;;;0.70;0.70;;;;;;;;;;5056050;28;20049;-81
2023/10/26 02:40:00;;;;;;;3.17;0.77;;;;;;;;;;5052599;28;20056;-81
2023/10/26 02:42:27;;;;;;;1.23;0.80;;;;;;;;;;5025942;28;20053;-81
2023/10/26 02:44:57;;;;;;;2.25;0.77;;;;;;;;;;5036946;28;20510;-80
2023/10/26 02:47:25;;;;;;;3.28;1.92;;;;;;;;;;5029838;28;20041;-81
2023/10/26 02:49:53;;;;;;;1.55;0.73;;;;;;;;;;5024699;28;20060;-81
2023/10/26 02:52:21;;;;;;;0.93;0.77;;;;;;;;;;5031748;28;20071;-81
2023/10/26 02:54:49;;;;;;;1.00;0.73;;;;;;;;;;5036068;28;20049;-81
2023/10/26 02:57:17;;;;;;;0.88;0.80;;;;;;;;;;5030287;28;20056;-81
2023/10/26 02:59:44;;;;;;;1.48;1.25;;;;;;;;;;5046403;28;20068;-81
2023/10/26 03:02:11;;;;;;;0.68;0.60;;;;;;;;;;5040088;28;20057;-81
2023/10/26 03:04:39;;;;;;;1.35;0.95;;;;;;;;;;5025217;28;20044;-81
2023/10/26 03:07:10;;;;;;;1.42;0.70;;;;;;;;;;5056837;28;20068;-81
2023/10/26 03:09:38;;;;;;;1.17;0.80;;;;;;;;;;5046671;28;20415;-82
2023/10/26 03:12:06;;;;;;;1.15;0.75;;;;;;;;;;5056869;28;20079;-81
2023/10/26 03:14:34;;;;;;;0.85;0.70;;;;;;;;;;5046653;28;20056;-81
2023/10/26 03:17:26;;;;;;;3.15;0.88;;;;;;;;;;5033302;28;20049;-81
2023/10/26 03:19:53;;;;;;;1.00;0.90;;;;;;;;;;5044581;28;20531;-81
2023/10/26 03:22:23;;;;;;;1.35;0.75;;;;;;;;;;5040300;28;20060;-81
2023/10/26 03:24:52;;;;;;;2.13;0.90;;;;;;;;;;5002452;28;20103;-80
2023/10/26 03:27:19;;;;;;;2.80;0.90;;;;;;;;;;5029961;28;20483;-81
2023/10/26 03:29:46;;;;;;;0.80;0.80;;;;;;;;;;5047553;28;20053;-81
2023/10/26 03:32:14;;;;;;;1.45;0.98;;;;;;;;;;5054905;28;20052;-81
2023/10/26 03:34:41;;;;;;;1.13;0.70;;;;;;;;;;5047336;28;20050;-81
2023/10/26 03:37:09;;;;;;;1.05;0.95;;;;;;;;;;5018721;28;21852;-81
2023/10/26 03:39:38;;;;;;;6.40;0.68;;;;;;;;;;5041175;28;20052;-81
2023/10/26 03:42:06;;;;;;;1.05;0.90;;;;;;;;;;5022580;28;20427;-81
2023/10/26 03:44:33;;;;;;;3.05;1.05;;;;;;;;;;5031389;28;20049;-81
2023/10/26 03:47:01;;;;;;;4.32;0.90;;;;;;;;;;5022748;28;20057;-81
2023/10/26 03:49:28;;;;;;;1.98;1.25;;;;;;;;;;5019121;28;20483;-81
2023/10/26 03:51:55;;;;;;;1.60;0.80;;;;;;;;;;5043751;28;20060;-81
2023/10/26 03:54:23;;;;;;;1.20;0.68;;;;;;;;;;5054845;28;20055;-81
2023/10/26 03:56:51;;;;;;;1.20;0.80;;;;;;;;;;5061322;28;20065;-81
2023/10/26 03:59:19;;;;;;;2.28;0.88;;;;;;;;;;5036181;28;20045;-81
2023/10/26 04:01:46;;;;;;;1.10;0.80;;;;;;;;;;5018497;28;20053;-81
2023/10/26 04:04:16;;;;;;;2.47;0.85;;;;;;;;;;5036337;28;20041;-81
2023/10/26 04:06:44;;;;;;;0.93;0.70;;;;;;;;;;5034994;28;20033;-81
2023/10/26 04:09:13;;;;;;;1.95;1.00;;;;;;;;;;5020688;28;20053;-82
2023/10/26 04:11:42;;;;;;;1.40;0.80;;;;;;;;;;5040833;28;20060;-81
2023/10/26 04:14:11;;;;;;;1.10;0.85;;;;;;;;;;5030913;28;20056;-81
2023/10/26 04:16:38;;;;;;;1.10;1.00;;;;;;;;;;5051118;28;20052;-81
2023/10/26 04:19:06;;;;;;;1.05;0.63;;;;;;;;;;5023379;28;20060;-82
2023/10/26 04:21:34;;;;;;;3.28;2.33;;;;;;;;;;5055209;28;20052;-81
2023/10/26 04:24:03;;;;;;;4.28;2.65;;;;;;;;;;5056141;28;20402;-81
2023/10/26 04:26:30;;;;;;;1.75;1.33;;;;;;;;;;5064486;28;20042;-81
2023/10/26 04:28:58;;;;;;;2.40;1.08;;;;;;;;;;5022177;28;20418;-81
2023/10/26 04:31:27;;;;;;;2.80;0.80;;;;;;;;;;5040734;28;20053;-81
2023/10/26 04:33:54;;;;;;;1.20;1.05;;;;;;;;;;5022464;28;20049;-81
2023/10/26 04:36:22;;;;;;;1.15;1.05;;;;;;;;;;5035865;28;20510;-81
2023/10/26 04:38:50;;;;;;;6.18;2.05;;;;;;;;;;5045574;28;20419;-81
2023/10/26 04:41:17;;;;;;;0.88;0.70;;;;;;;;;;5027223;28;20061;-81
2023/10/26 04:43:45;;;;;;;3.40;1.20;;;;;;;;;;5046392;28;20053;-81
2023/10/26 04:46:14;;;;;;;0.82;0.82;;;;;;;;;;5016525;28;20053;-81
2023/10/26 04:48:43;;;;;;;3.22;1.00;;;;;;;;;;5037166;28;20052;-81
2023/10/26 04:51:10;;;;;;;3.20;0.90;;;;;;;;;;5023411;28;20056;-81
2023/10/26 04:53:38;;;;;;;2.25;0.70;;;;;;;;;;5055642;28;20049;-81
2023/10/26 04:56:10;;;;;;;1.40;1.20;;;;;;;;;;5054976;28;20499;-81
2023/10/26 04:58:43;;;;;;;1.25;1.15;;;;;;;;;;5022898;28;20065;-81
2023/10/26 05:01:10;;;;;;;1.25;1.13;;;;;;;;;;5045647;28;20053;-81
2023/10/26 05:03:38;;;;;;;0.95;0.88;;;;;;;;;;5045746;28;20499;-81
2023/10/26 05:06:07;;;;;;;2.08;1.00;;;;;;;;;;5030534;28;20061;-81
2023/10/26 05:08:35;;;;;;;1.40;0.90;;;;;;;;;;5042684;28;20064;-81
2023/10/26 05:11:02;;;;;;;1.52;0.90;;;;;;;;;;5027862;28;20049;-81
2023/10/26 05:13:29;;;;;;;1.88;1.25;;;;;;;;;;5045772;28;20038;-81
2023/10/26 05:15:56;;;;;;;3.42;1.13;;;;;;;;;;5042377;28;20061;-81
2023/10/26 05:18:26;;;;;;;1.30;1.10;;;;;;;;;;5030829;28;20065;-81
2023/10/26 05:20:53;;;;;;;2.35;1.35;;;;;;;;;;5021920;28;20499;-81
2023/10/26 05:23:27;;;;;;;1.10;0.95;;;;;;;;;;5024859;28;20048;-81
2023/10/26 05:25:54;;;;;;;1.52;1.20;;;;;;;;;;5045356;28;20049;-81
2023/10/26 05:28:22;;;;;;;3.22;2.00;;;;;;;;;;5054427;28;20048;-81
2023/10/26 05:30:49;;;;;;;2.47;1.38;;;;;;;;;;5035611;28;22007;-81
2023/10/26 05:33:16;;;;;;;1.10;0.90;;;;;;;;;;5037463;28;20053;-81
2023/10/26 05:35:44;;;;;;;2.58;2.10;;;;;;;;;;5038409;28;20045;-81
2023/10/26 05:38:12;;;;;;;1.10;1.00;;;;;;;;;;5063303;28;20063;-81
2023/10/26 05:40:50;;;;;;;1.63;1.02;;;;;;;;;;5048460;28;20060;-81
2023/10/26 05:43:17;;;;;;;1.42;1.05;;;;;;;;;;5038059;28;20057;-81
2023/10/26 05:45:47;;;;;;;1.35;1.17;;;;;;;;;;5037641;28;20042;-81
2023/10/26 05:48:16;;;;;;;1.63;1.20;;;;;;;;;;5034759;28;20049;-80
2023/10/26 07:14:24;;;;;;;2.45;1.15;;;;;;;;;;6171069;23;20023;-83
2023/10/26 07:16:51;;;;;;;2.30;1.50;;;;;;;;;;6151865;23;20476;-81
2023/10/26 07:19:18;;;;;;;3.85;0.95;;;;;;;;;;6177193;23;20013;-82
2023/10/26 07:21:46;;;;;;;1.63;1.33;;;;;;;;;;6150970;23;20013;-83
2023/10/26 07:24:13;;;;;;;3.92;1.38;;;;;;;;;;6162199;23;20025;-83
2023/10/26 07:26:41;;;;;;;1.85;1.20;;;;;;;;;;6189616;23;20020;-83
2023/10/26 07:29:09;;;;;;;2.05;1.30;;;;;;;;;;6199033;23;20012;-84
2023/10/26 07:31:37;;;;;;;2.80;1.00;;;;;;;;;;6164114;23;20017;-84
2023/10/26 07:34:05;;;;;;;3.45;1.15;;;;;;;;;;6168823;23;20020;-84
2023/10/26 07:36:33;;;;;;;4.30;1.05;;;;;;;;;;6157998;23;20227;-85
2023/10/26 07:39:01;;;;;;;1.58;1.15;;;;;;;;;;6155098;23;20028;-85
2023/10/26 07:41:28;;;;;;;1.13;1.00;;;;;;;;;;6132499;23;20495;-85
2023/10/26 07:43:56;;;;;;;2.88;1.40;;;;;;;;;;6184451;23;20048;-85
2023/10/26 07:46:23;;;;;;;1.08;0.88;;;;;;;;;;6131202;23;20032;-84
2023/10/26 07:48:52;;;;;;;3.45;1.55;;;;;;;;;;6132925;23;20345;-85
2023/10/26 07:51:19;;;;;;;0.88;0.70;;;;;;;;;;6152437;23;20345;-85
2023/10/26 07:53:46;;;;;;;2.22;1.15;;;;;;;;;;6155814;23;20021;-85
2023/10/26 07:56:15;;;;;;;1.45;0.68;;;;;;;;;;6158650;23;20017;-85
2023/10/26 07:58:42;;;;;;;4.35;1.00;;;;;;;;;;6184563;23;20028;-85
2023/10/26 08:01:10;;;;;;;1.00;0.85;;;;;;;;;;6131148;23;20021;-84
2023/10/26 08:03:37;;;;;;;3.75;1.27;;;;;;;;;;6155968;23;20016;-85
2023/10/26 08:06:09;;;;;;;3.78;1.73;;;;;;;;;;6183505;23;20013;-84
2023/10/26 08:08:36;;;;;;;1.63;1.42;;;;;;;;;;6167399;23;20483;-84
2023/10/26 08:11:11;;;;;;;1.30;1.20;;;;;;;;;;6132833;23;20029;-85
2023/10/26 08:13:38;;;;;;;2.60;1.48;;;;;;;;;;6183646;23;20450;-85
2023/10/26 08:16:06;;;;;;;1.95;1.40;;;;;;;;;;6193972;23;20024;-85
2023/10/26 08:18:33;;;;;;;2.13;1.90;;;;;;;;;;6157368;23;20351;-84
2023/10/26 08:21:03;;;;;;;4.97;2.55;;;;;;;;;;6156658;23;20428;-84
2023/10/26 08:23:32;;;;;;;3.30;1.42;;;;;;;;;;6131311;23;20792;-84
2023/10/26 08:26:06;;;;;;;1.58;1.30;;;;;;;;;;6193831;23;20017;-84
2023/10/26 08:28:33;;;;;;;1.92;1.65;;;;;;;;;;6194077;23;20345;-84
2023/10/26 08:31:01;;;;;;;1.67;1.30;;;;;;;;;;6183548;23;20024;-84
2023/10/26 08:33:30;;;;;;;2.20;1.20;;;;;;;;;;6182700;23;20009;-84
2023/10/26 08:35:57;;;;;;;6.00;1.92;;;;;;;;;;6183513;23;20024;-84
2023/10/26 08:38:25;;;;;;;1.33;1.13;;;;;;;;;;6132213;23;20028;-84
2023/10/26 08:40:54;;;;;;;1.50;1.13;;;;;;;;;;6158661;23;20017;-85
2023/10/26 08:43:23;;;;;;;4.40;1.85;;;;;;;;;;6132296;23;20362;-84
2023/10/26 08:45:52;;;;;;;1.52;1.27;;;;;;;;;;6131128;23;20020;-85
2023/10/26 08:48:20;;;;;;;2.22;1.30;;;;;;;;;;6133120;23;20017;-84
2023/10/26 08:50:48;;;;;;;1.13;0.95;;;;;;;;;;6182250;23;20025;-84
2023/10/26 08:53:16;;;;;;;3.35;2.00;;;;;;;;;;6156464;23;20348;-84
2023/10/26 08:55:44;;;;;;;1.20;1.10;;;;;;;;;;6131918;23;20017;-84
2023/10/26 08:58:12;;;;;;;1.42;1.05;;;;;;;;;;6133134;23;20028;-84
2023/10/26 09:00:40;;;;;;;4.75;1.20;;;;;;;;;;6132086;23;20028;-84
2023/10/26 09:03:08;;;;;;;2.40;1.27;;;;;;;;;;6156204;23;20013;-84
2023/10/26 09:05:52;;;;;;;2.47;1.00;;;;;;;;;;6156207;23;20024;-84
2023/10/26 09:08:20;;;;;;;1.85;1.23;;;;;;;;;;6155633;23;20024;-84
2023/10/26 09:10:47;;;;;;;4.03;1.35;;;;;;;;;;6182811;23;20013;-84
2023/10/26 09:13:25;;;;;;;1.13;1.02;;;;;;;;;;6154430;23;20028;-84
2023/10/26 09:15:55;;;;;;;2.50;1.20;;;;;;;;;;6166064;23;20024;-84
2023/10/26 09:18:22;;;;;;;2.03;1.50;;;;;;;;;;6131989;23;20021;-84
2023/10/26 09:21:04;;;;;;;1.48;1.38;;;;;;;;;;6156460;23;20017;-84
2023/10/26 09:23:32;;;;;;;13.57;5.85;;;;;;;;;;6157532;23;20028;-84
2023/10/26 09:26:01;;;;;;;2.97;2.17;;;;;;;;;;6182514;23;20013;-84
2023/10/26 09:28:30;;;;;;;2.20;1.67;;;;;;;;;;6132141;23;20492;-84
2023/10/26 09:30:59;;;;;;;3.50;2.47;;;;;;;;;;6132494;23;20469;-84
2023/10/26 09:33:27;;;;;;;2.38;1.50;;;;;;;;;;6131006;23;20020;-84
2023/10/26 09:36:11;;;;;;;2.13;1.40;;;;;;;;;;6157499;23;20024;-84
2023/10/26 09:38:39;;;;;;;2.22;2.00;;;;;;;;;;6132034;23;20028;-84
2023/10/26 09:41:08;;;;;;;4.93;2.00;;;;;;;;;;6182967;23;20017;-84
2023/10/26 09:43:37;;;;;;;1.60;1.40;;;;;;;;;;6183021;23;20028;-84
2023/10/26 09:46:05;;;;;;;3.38;1.98;;;;;;;;;;6157453;23;20025;-85
2023/10/26 09:48:32;;;;;;;2.00;1.52;;;;;;;;;;6132093;23;20040;-84
2023/10/26 09:51:01;;;;;;;2.95;1.95;;;;;;;;;;6156975;23;20020;-85
2023/10/26 09:53:34;;;;;;;3.20;1.60;;;;;;;;;;6156536;23;20024;-85
2023/10/26 09:56:02;;;;;;;2.47;1.57;;;;;;;;;;6193753;23;20471;-84
2023/10/26 09:58:34;;;;;;;3.33;1.30;;;;;;;;;;6132562;23;20260;-85
2023/10/26 10:01:33;;;;;;;2.67;1.40;;;;;;;;;;6154958;23;20021;-84
2023/10/26 10:04:01;;;;;;;3.15;1.40;;;;;;;;;;6132416;23;20017;-84
2023/10/26 10:06:47;;;;;;;2.03;1.83;;;;;;;;;;6183610;23;20020;-85
2023/10/26 10:09:16;;;;;;;2.42;1.83;;;;;;;;;;6155173;23;20496;-84
2023/10/26 10:11:43;;;;;;;4.65;2.15;;;;;;;;;;6131757;23;20016;-85
2023/10/26 10:14:50;;;;;;;3.72;2.35;;;;;;;;;;6131911;23;20017;-85
2023/10/26 10:17:20;;;;;;;3.95;3.25;;;;;;;;;;6149140;23;20028;-84
2023/10/26 10:19:48;;;;;;;5.63;2.15;;;;;;;;;;6131230;23;20024;-84
2023/10/26 10:22:58;;;;;;;2.35;2.15;;;;;;;;;;6131313;23;20017;-84
2023/10/26 10:26:02;;;;;;;2.42;1.63;;;;;;;;;;6081467;23;20017;-84
2023/10/26 10:28:51;;;;;;;2.17;1.98;;;;;;;;;;6156835;23;20017;-85
2023/10/26 10:31:38;;;;;;;4.20;1.95;;;;;;;;;;6155867;23;20472;-85
2023/10/26 10:34:09;;;;;;;2.33;1.80;;;;;;;;;;6132367;23;20017;-84
2023/10/26 10:37:08;;;;;;;3.05;2.50;;;;;;;;;;6166387;23;20020;-85
2023/10/26 10:39:35;;;;;;;2.92;2.50;;;;;;;;;;6131518;23;20357;-85
2023/10/26 10:42:04;;;;;;;4.03;2.83;;;;;;;;;;6182953;23;20020;-84
2023/10/26 10:44:36;;;;;;;2.28;2.08;;;;;;;;;;6132175;23;20028;-84
2023/10/26 10:47:03;;;;;;;4.22;2.42;;;;;;;;;;6191679;23;20020;-84
2023/10/26 10:49:35;;;;;;;4.05;2.10;;;;;;;;;;6157377;23;20017;-84
2023/10/26 10:52:13;;;;;;;8.43;2.80;;;;;;;;;;6131259;23;20362;-84
2023/10/26 10:54:49;;;;;;;2.53;2.10;;;;;;;;;;6154946;23;20013;-84
2023/10/26 10:57:18;;;;;;;3.92;2.55;;;;;;;;;;6152614;23;20017;-84
2023/10/26 10:59:45;;;;;;;3.55;2.50;;;;;;;;;;6181917;23;20028;-85
2023/10/26 11:02:14;;;;;;;2.75;2.10;;;;;;;;;;6155543;23;20480;-86
2023/10/26 11:04:53;;;;;;;2.97;1.83;;;;;;;;;;6155595;23;20017;-84
2023/10/26 11:07:24;;;;;;;2.40;2.00;;;;;;;;;;6181820;23;20017;-85
2023/10/26 11:09:55;;;;;;;2.90;1.88;;;;;;;;;;6157603;23;20017;-84
2023/10/26 11:12:23;;;;;;;2.70;2.08;;;;;;;;;;6168510;23;20449;-85
2023/10/26 11:14:51;;;;;;;3.45;2.50;;;;;;;;;;6184190;23;20016;-85
2023/10/26 11:17:18;;;;;;;5.20;2.35;;;;;;;;;;6133734;23;20457;-84
2023/10/26 11:19:46;;;;;;;2.35;2.03;;;;;;;;;;6156566;23;20040;-85
2023/10/26 11:22:18;;;;;;;2.45;2.20;;;;;;;;;;6158137;23;20028;-84
2023/10/26 11:24:46;;;;;;;2.38;1.80;;;;;;;;;;6157953;23;20358;-84
2023/10/26 11:27:15;;;;;;;2.72;1.85;;;;;;;;;;6184657;23;20010;-84
2023/10/26 11:29:46;;;;;;;3.63;2.25;;;;;;;;;;6133270;23;20017;-85
2023/10/26 11:32:20;;;;;;;2.20;2.00;;;;;;;;;;6184871;23;20021;-84
2023/10/26 11:35:06;;;;;;;1.88;1.70;;;;;;;;;;6157437;23;20024;-84
2023/10/26 11:37:39;;;;;;;2.05;1.85;;;;;;;;;;6158041;23;20025;-85
2023/10/26 11:40:08;;;;;;;2.65;2.42;;;;;;;;;;6155952;23;20376;-85
2023/10/26 11:42:49;;;;;;;3.08;2.28;;;;;;;;;;6131421;23;20017;-84
2023/10/26 11:45:17;;;;;;;1.40;1.30;;;;;;;;;;6154291;23;20069;-84
2023/10/26 11:47:51;;;;;;;2.50;1.98;;;;;;;;;;6133028;23;20024;-85
2023/10/26 11:50:23;;;;;;;2.38;1.40;;;;;;;;;;6188456;23;20461;-84
2023/10/26 11:52:56;;;;;;;2.45;1.52;;;;;;;;;;6158113;23;20032;-84
2023/10/26 11:55:30;;;;;;;2.60;2.05;;;;;;;;;;6194682;23;20013;-85
2023/10/26 11:57:58;;;;;;;1.95;1.58;;;;;;;;;;6157766;23;20333;-84
2023/10/26 12:00:27;;;;;;;1.42;1.30;;;;;;;;;;6156272;23;20024;-85
2023/10/26 12:02:57;;;;;;;3.85;1.30;;;;;;;;;;6159209;23;20457;-85
2023/10/26 12:05:25;;;;;;;1.27;1.17;;;;;;;;;;6133216;23;20021;-84
2023/10/26 12:07:54;;;;;;;1.30;1.05;;;;;;;;;;6132803;23;20024;-85
2023/10/26 12:10:24;;;;;;;4.15;1.27;;;;;;;;;;6157177;23;20017;-85
2023/10/26 12:12:52;;;;;;;3.55;1.35;;;;;;;;;;6157818;23;20024;-85
2023/10/26 12:15:20;;;;;;;2.67;1.08;;;;;;;;;;6109107;23;20013;-84
2023/10/26 12:17:49;;;;;;;1.65;1.55;;;;;;;;;;6132907;23;20021;-85
2023/10/26 12:20:19;;;;;;;1.42;1.08;;;;;;;;;;6132678;23;20058;-85
2023/10/26 12:22:48;;;;;;;1.25;1.08;;;;;;;;;;6132966;23;20025;-85
2023/10/26 12:25:16;;;;;;;1.40;1.00;;;;;;;;;;6184212;23;20021;-85
2023/10/26 12:27:46;;;;;;;1.60;1.25;;;;;;;;;;6133196;23;20025;-85
2023/10/26 12:30:14;;;;;;;2.60;1.10;;;;;;;;;;6156868;23;20335;-85
2023/10/26 12:32:43;;;;;;;1.30;1.13;;;;;;;;;;6182962;23;20016;-85
2023/10/26 12:35:13;;;;;;;1.88;1.25;;;;;;;;;;6184246;23;20017;-85
2023/10/26 12:37:40;;;;;;;2.83;1.58;;;;;;;;;;6184309;23;20024;-85
2023/10/26 12:40:11;;;;;;;1.88;1.55;;;;;;;;;;6183063;23;20349;-85
2023/10/26 12:42:44;;;;;;;1.77;1.13;;;;;;;;;;6133850;23;20039;-85
2023/10/26 12:45:17;;;;;;;;;;;;;;;;;;6169787;23;20024;-85
2023/10/26 12:47:46;;;;;;;4.30;2.00;;;;;;;;;;6157738;23;19924;-85
2023/10/26 12:50:14;;;;;;;2.13;1.52;;;;;;;;;;6132531;23;20024;-85
2023/10/26 12:52:46;;;;;;;2.95;1.48;;;;;;;;;;6157642;23;20025;-85
2023/10/26 12:55:13;;;;;;;3.40;1.67;;;;;;;;;;6168185;23;20016;-85
2023/10/26 12:57:44;;;;;;;3.22;1.60;;;;;;;;;;6133686;23;20329;-85
2023/10/26 13:00:16;;;;;;;3.35;1.67;;;;;;;;;;6156951;23;20029;-85
2023/10/26 13:02:44;;;;;;;1.15;0.93;;;;;;;;;;6157556;23;20017;-85
2023/10/26 13:05:12;;;;;;;1.75;1.30;;;;;;;;;;6193808;23;20017;-85
2023/10/26 13:07:40;;;;;;;1.40;1.15;;;;;;;;;;6157659;23;20017;-86
2023/10/26 13:10:12;;;;;;;1.48;1.10;;;;;;;;;;6188555;23;20024;-85
2023/10/26 13:12:39;;;;;;;5.68;1.15;;;;;;;;;;6132574;23;20017;-85
2023/10/26 13:15:14;;;;;;;1.35;1.20;;;;;;;;;;6110277;23;20025;-81
2023/10/26 13:17:41;;;;;;;1.17;1.08;;;;;;;;;;6080466;23;20033;-82
2023/10/26 13:20:10;;;;;;;1.58;1.10;;;;;;;;;;6079156;23;20019;-82
2023/10/26 13:22:37;;;;;;;4.82;4.05;;;;;;;;;;6078989;23;20025;-82
2023/10/26 13:25:05;;;;;;;2.08;1.50;;;;;;;;;;6105512;23;20018;-82
2023/10/26 13:27:32;;;;;;;3.22;1.83;;;;;;;;;;6080740;23;20027;-82
2023/10/26 13:29:59;;;;;;;3.50;2.20;;;;;;;;;;6078780;23;20022;-82
2023/10/26 13:32:28;;;;;;;1.60;1.17;;;;;;;;;;6102238;23;20746;-82
2023/10/26 13:34:55;;;;;;;2.38;2.17;;;;;;;;;;6126873;23;20022;-82
2023/10/26 13:37:25;;;;;;;3.25;1.20;;;;;;;;;;6079341;23;20022;-82
2023/10/26 13:39:52;;;;;;;2.03;1.83;;;;;;;;;;6077823;23;20029;-83
2023/10/26 13:42:21;;;;;;;5.10;1.40;;;;;;;;;;6079070;23;20022;-81
2023/10/26 13:44:49;;;;;;;4.78;4.38;;;;;;;;;;6102448;23;20022;-83
2023/10/26 13:47:18;;;;;;;3.15;2.00;;;;;;;;;;6103037;23;20019;-81
2023/10/26 13:49:47;;;;;;;2.90;2.60;;;;;;;;;;6078032;23;20033;-83
2023/10/26 13:52:15;;;;;;;2.42;2.17;;;;;;;;;;6079379;23;20340;-82
2023/10/26 13:54:43;;;;;;;2.97;2.65;;;;;;;;;;6127960;23;20018;-81
2023/10/26 13:57:10;;;;;;;1.80;1.65;;;;;;;;;;6078839;23;20022;-81
2023/10/26 13:59:38;;;;;;;5.80;2.35;;;;;;;;;;6078388;23;20024;-81
2023/10/26 14:02:08;;;;;;;2.00;1.60;;;;;;;;;;6113831;23;20025;-82
2023/10/26 14:04:37;;;;;;;3.38;1.65;;;;;;;;;;6079772;23;20029;-82
2023/10/26 14:07:09;;;;;;;8.40;7.40;;;;;;;;;;6079082;23;20168;-82
2023/10/26 14:09:36;;;;;;;2.67;2.13;;;;;;;;;;6110167;23;20024;-82
2023/10/26 14:12:04;;;;;;;3.20;2.75;;;;;;;;;;6078208;23;20023;-82
2023/10/26 14:14:34;;;;;;;2.50;1.92;;;;;;;;;;6077475;23;20032;-82
2023/10/26 14:17:03;;;;;;;2.97;1.90;;;;;;;;;;6077097;23;20022;-82
2023/10/26 14:19:30;;;;;;;3.10;1.40;;;;;;;;;;6100737;23;20018;-82
2023/10/26 14:21:57;;;;;;;3.47;1.67;;;;;;;;;;6100693;23;20477;-82
2023/10/26 14:24:26;;;;;;;2.47;1.63;;;;;;;;;;6101427;23;20028;-82
2023/10/26 14:26:54;;;;;;;3.08;2.78;;;;;;;;;;6077497;23;20014;-82
2023/10/26 14:29:21;;;;;;;2.13;1.60;;;;;;;;;;6078240;23;20023;-82
2023/10/26 14:31:48;;;;;;;3.50;2.17;;;;;;;;;;6103028;23;20019;-82
2023/10/26 14:34:20;;;;;;;4.57;2.25;;;;;;;;;;6079253;23;20026;-82
2023/10/26 14:36:50;;;;;;;4.18;2.10;;;;;;;;;;6103208;23;20015;-82
2023/10/26 14:39:20;;;;;;;2.83;1.70;;;;;;;;;;6102617;23;20018;-81
2023/10/26 14:41:48;;;;;;;3.15;2.47;;;;;;;;;;6078103;23;20026;-82
2023/10/26 14:44:16;;;;;;;2.08;1.88;;;;;;;;;;6081363;23;20034;-82
2023/10/26 14:46:43;;;;;;;3.03;2.03;;;;;;;;;;6106294;23;20028;-82
2023/10/26 14:49:10;;;;;;;4.13;1.95;;;;;;;;;;6105202;23;20379;-82
2023/10/26 14:51:42;;;;;;;2.55;1.60;;;;;;;;;;6080132;23;20029;-82
2023/10/26 14:54:12;;;;;;;3.20;1.83;;;;;;;;;;6105413;23;20025;-82
2023/10/26 14:56:42;;;;;;;4.07;2.38;;;;;;;;;;6106874;23;20014;-82
2023/10/26 14:59:11;;;;;;;2.25;1.77;;;;;;;;;;6081475;23;20023;-82
2023/10/26 15:01:38;;;;;;;6.28;2.67;;;;;;;;;;6079644;23;20029;-82
2023/10/26 15:04:07;;;;;;;6.03;3.47;;;;;;;;;;6105346;23;20022;-82
2023/10/26 15:06:37;;;;;;;4.38;3.72;;;;;;;;;;6080729;23;20023;-82
2023/10/26 15:09:04;;;;;;;8.07;3.58;;;;;;;;;;6104640;23;20014;-82
2023/10/26 15:11:31;;;;;;;3.42;2.58;;;;;;;;;;6079994;23;20022;-82
2023/10/26 15:13:58;;;;;;;5.38;2.50;;;;;;;;;;6084499;23;20041;-82
2023/10/26 15:16:27;;;;;;;3.60;2.83;;;;;;;;;;6134279;23;20422;-82
2023/10/26 15:18:55;;;;;;;3.10;2.40;;;;;;;;;;6110098;23;20488;-82
2023/10/26 15:21:22;;;;;;;3.47;2.08;;;;;;;;;;6108938;23;20018;-82
2023/10/26 15:23:49;;;;;;;5.47;2.67;;;;;;;;;;6132909;23;20028;-82
2023/10/26 15:26:16;;;;;;;2.63;2.03;;;;;;;;;;6109591;23;20021;-82
2023/10/26 15:28:46;;;;;;;2.80;1.77;;;;;;;;;;6133400;23;20036;-82
2023/10/26 15:31:13;;;;;;;7.75;2.80;;;;;;;;;;6133578;23;20044;-82
2023/10/26 15:33:41;;;;;;;4.13;3.13;;;;;;;;;;6109346;23;20022;-82
2023/10/26 15:36:09;;;;;;;3.83;2.70;;;;;;;;;;6109877;23;20024;-82
2023/10/26 15:38:40;;;;;;;7.88;3.63;;;;;;;;;;6109837;23;20026;-82
2023/10/26 15:41:08;;;;;;;3.80;2.95;;;;;;;;;;6109644;23;20028;-82
2023/10/26 15:43:35;;;;;;;3.53;3.22;;;;;;;;;;6134194;23;20044;-82
2023/10/26 15:46:03;;;;;;;4.80;3.30;;;;;;;;;;6109543;23;20022;-82
2023/10/26 15:48:33;;;;;;;5.35;4.07;;;;;;;;;;6110158;23;20022;-82
2023/10/26 15:51:05;;;;;;;4.70;3.83;;;;;;;;;;6133497;23;20470;-82
2023/10/26 15:53:32;;;;;;;3.38;2.70;;;;;;;;;;6134510;23;20028;-82
2023/10/26 15:56:02;;;;;;;6.40;5.80;;;;;;;;;;6110026;23;20024;-82
2023/10/26 15:58:32;;;;;;;10.15;5.40;;;;;;;;;;6143872;23;20028;-82
2023/10/26 16:00:59;;;;;;;6.22;4.13;;;;;;;;;;6110326;23;20022;-82
2023/10/26 16:03:29;;;;;;;4.57;4.18;;;;;;;;;;6109804;23;20021;-82
2023/10/26 16:06:06;;;;;;;5.80;3.80;;;;;;;;;;6134811;23;20018;-82
2023/10/26 16:08:34;;;;;;;5.38;3.88;;;;;;;;;;6109508;23;20018;-82
2023/10/26 16:11:02;;;;;;;4.65;3.67;;;;;;;;;;6135384;23;20021;-82
2023/10/26 16:13:29;;;;;;;3.95;3.55;;;;;;;;;;6109711;23;20018;-81
2023/10/26 16:15:56;;;;;;;7.43;4.57;;;;;;;;;;6132690;23;20018;-81
2023/10/26 16:18:23;;;;;;;5.78;4.40;;;;;;;;;;6137708;23;20024;-81
2023/10/26 16:20:53;;;;;;;5.80;5.10;;;;;;;;;;6163690;23;20018;-81